sensor_id;sensor_type;location;lat;lon;timestamp;pressure;altitude;pressure_sealevel;temperature;humidity
22755;BME280;11544;42.020;23.094;2023-05-25T00:01:47;97041.84;;;17.35;81.55
22755;BME280;11544;42.020;23.094;2023-05-25T00:04:15;97043.66;;;17.34;81.05
22755;BME280;11544;42.020;23.094;2023-05-25T00:06:43;97050.41;;;17.39;81.01
22755;BME280;11544;42.020;23.094;2023-05-25T00:09:13;97053.69;;;17.55;80.26
22755;BME280;11544;42.020;23.094;2023-05-25T00:11:40;97042.59;;;17.10;82.77
22755;BME280;11544;42.020;23.094;2023-05-25T00:14:07;97045.97;;;17.12;82.86
22755;BME280;11544;42.020;23.094;2023-05-25T00:16:34;97045.94;;;16.70;82.57
22755;BME280;11544;42.020;23.094;2023-05-25T00:19:04;97041.72;;;16.82;84.57
22755;BME280;11544;42.020;23.094;2023-05-25T00:21:32;97048.09;;;16.92;84.11
22755;BME280;11544;42.020;23.094;2023-05-25T00:24:04;97039.53;;;16.89;83.95
22755;BME280;11544;42.020;23.094;2023-05-25T00:26:34;97041.41;;;17.01;83.00
22755;BME280;11544;42.020;23.094;2023-05-25T00:29:04;97045.28;;;17.23;81.99
22755;BME280;11544;42.020;23.094;2023-05-25T00:31:32;97050.22;;;17.00;80.96
22755;BME280;11544;42.020;23.094;2023-05-25T00:34:01;97049.13;;;16.90;82.55
22755;BME280;11544;42.020;23.094;2023-05-25T00:36:28;97052.69;;;17.03;82.48
22755;BME280;11544;42.020;23.094;2023-05-25T00:38:54;97054.47;;;16.74;83.69
22755;BME280;11544;42.020;23.094;2023-05-25T00:41:22;97051.59;;;16.79;83.32
22755;BME280;11544;42.020;23.094;2023-05-25T00:43:50;97057.59;;;16.66;84.29
22755;BME280;11544;42.020;23.094;2023-05-25T00:46:17;97061.63;;;16.72;84.03
22755;BME280;11544;42.020;23.094;2023-05-25T00:48:44;97067.88;;;16.42;86.09
22755;BME280;11544;42.020;23.094;2023-05-25T00:51:14;97069.38;;;16.61;84.39
22755;BME280;11544;42.020;23.094;2023-05-25T00:53:55;97069.34;;;16.75;84.32
22755;BME280;11544;42.020;23.094;2023-05-25T00:56:25;97070.28;;;16.74;83.53
22755;BME280;11544;42.020;23.094;2023-05-25T00:58:56;97071.88;;;16.48;85.23
22755;BME280;11544;42.020;23.094;2023-05-25T01:01:27;97068.41;;;16.90;83.93
22755;BME280;11544;42.020;23.094;2023-05-25T01:04:00;97069.81;;;16.67;85.01
22755;BME280;11544;42.020;23.094;2023-05-25T01:06:31;97074.72;;;16.88;84.18
22755;BME280;11544;42.020;23.094;2023-05-25T01:09:03;97074.50;;;16.62;85.90
22755;BME280;11544;42.020;23.094;2023-05-25T01:11:35;97079.22;;;16.43;86.90
22755;BME280;11544;42.020;23.094;2023-05-25T01:14:02;97086.06;;;16.17;88.22
22755;BME280;11544;42.020;23.094;2023-05-25T01:16:30;97083.72;;;16.69;86.29
22755;BME280;11544;42.020;23.094;2023-05-25T01:18:57;97091.25;;;16.61;87.09
22755;BME280;11544;42.020;23.094;2023-05-25T01:21:30;97086.16;;;16.58;85.32
22755;BME280;11544;42.020;23.094;2023-05-25T01:26:54;97080.91;;;16.44;85.73
22755;BME280;11544;42.020;23.094;2023-05-25T01:29:25;97087.19;;;16.27;86.62
22755;BME280;11544;42.020;23.094;2023-05-25T01:31:54;97081.38;;;16.22;86.44
22755;BME280;11544;42.020;23.094;2023-05-25T01:34:24;97088.41;;;16.21;87.87
22755;BME280;11544;42.020;23.094;2023-05-25T01:36:52;97087.09;;;16.28;87.05
22755;BME280;11544;42.020;23.094;2023-05-25T01:39:22;97090.34;;;16.03;89.16
22755;BME280;11544;42.020;23.094;2023-05-25T01:41:49;97101.84;;;16.17;89.54
22755;BME280;11544;42.020;23.094;2023-05-25T01:44:16;97092.72;;;16.08;88.12
22755;BME280;11544;42.020;23.094;2023-05-25T01:46:43;97091.50;;;16.14;88.44
22755;BME280;11544;42.020;23.094;2023-05-25T01:49:26;97100.06;;;16.17;90.01
22755;BME280;11544;42.020;23.094;2023-05-25T01:54:51;97096.16;;;16.08;88.26
22755;BME280;11544;42.020;23.094;2023-05-25T01:57:19;97101.03;;;16.30;86.88
22755;BME280;11544;42.020;23.094;2023-05-25T01:59:47;97096.69;;;15.85;86.60
22755;BME280;11544;42.020;23.094;2023-05-25T02:02:19;97099.59;;;15.80;91.01
22755;BME280;11544;42.020;23.094;2023-05-25T02:04:46;97092.63;;;16.09;90.43
22755;BME280;11544;42.020;23.094;2023-05-25T02:07:16;97100.53;;;15.79;90.93
22755;BME280;11544;42.020;23.094;2023-05-25T02:09:43;97097.00;;;15.33;93.51
22755;BME280;11544;42.020;23.094;2023-05-25T02:12:11;97102.56;;;15.74;94.41
22755;BME280;11544;42.020;23.094;2023-05-25T02:14:38;97103.53;;;15.41;92.27
22755;BME280;11544;42.020;23.094;2023-05-25T02:17:05;97104.69;;;15.52;96.63
22755;BME280;11544;42.020;23.094;2023-05-25T02:19:34;97105.97;;;15.76;93.93
22755;BME280;11544;42.020;23.094;2023-05-25T02:22:01;97102.13;;;15.66;94.36
22755;BME280;11544;42.020;23.094;2023-05-25T02:24:28;97103.09;;;15.49;95.22
22755;BME280;11544;42.020;23.094;2023-05-25T02:26:55;97116.19;;;15.19;99.00
22755;BME280;11544;42.020;23.094;2023-05-25T02:29:22;97118.69;;;15.52;97.28
22755;BME280;11544;42.020;23.094;2023-05-25T02:31:49;97114.09;;;15.56;96.72
22755;BME280;11544;42.020;23.094;2023-05-25T02:34:16;97112.38;;;15.40;97.26
22755;BME280;11544;42.020;23.094;2023-05-25T02:36:43;97116.06;;;15.52;97.49
22755;BME280;11544;42.020;23.094;2023-05-25T02:39:10;97116.91;;;15.69;96.46
22755;BME280;11544;42.020;23.094;2023-05-25T02:41:37;97118.00;;;15.80;95.55
22755;BME280;11544;42.020;23.094;2023-05-25T02:44:04;97126.41;;;15.55;95.95
22755;BME280;11544;42.020;23.094;2023-05-25T02:46:32;97124.97;;;14.86;100.00
22755;BME280;11544;42.020;23.094;2023-05-25T02:48:59;97126.91;;;15.46;100.00
22755;BME280;11544;42.020;23.094;2023-05-25T02:51:27;97128.97;;;15.25;98.96
22755;BME280;11544;42.020;23.094;2023-05-25T02:53:54;97125.38;;;15.58;97.09
22755;BME280;11544;42.020;23.094;2023-05-25T02:56:21;97136.91;;;14.92;98.63
22755;BME280;11544;42.020;23.094;2023-05-25T02:58:48;97131.81;;;15.04;100.00
22755;BME280;11544;42.020;23.094;2023-05-25T03:01:16;97134.03;;;14.96;100.00
22755;BME280;11544;42.020;23.094;2023-05-25T03:03:45;97137.84;;;14.91;100.00
22755;BME280;11544;42.020;23.094;2023-05-25T03:06:13;97134.41;;;15.22;100.00
22755;BME280;11544;42.020;23.094;2023-05-25T03:08:41;97137.03;;;15.38;98.15
22755;BME280;11544;42.020;23.094;2023-05-25T03:11:08;97144.22;;;15.02;100.00
22755;BME280;11544;42.020;23.094;2023-05-25T03:13:35;97141.16;;;15.42;99.77
22755;BME280;11544;42.020;23.094;2023-05-25T03:16:02;97149.13;;;15.24;97.51
22755;BME280;11544;42.020;23.094;2023-05-25T03:18:29;97147.69;;;15.35;97.31
22755;BME280;11544;42.020;23.094;2023-05-25T03:20:57;97145.72;;;15.70;92.48
22755;BME280;11544;42.020;23.094;2023-05-25T03:23:46;97145.31;;;15.62;92.15
22755;BME280;11544;42.020;23.094;2023-05-25T03:26:14;97142.59;;;15.32;92.96
22755;BME280;11544;42.020;23.094;2023-05-25T03:28:41;97156.25;;;15.22;94.61
22755;BME280;11544;42.020;23.094;2023-05-25T03:31:08;97150.31;;;15.35;93.79
22755;BME280;11544;42.020;23.094;2023-05-25T03:33:35;97153.00;;;15.49;94.19
22755;BME280;11544;42.020;23.094;2023-05-25T03:36:08;97153.78;;;15.19;95.45
22755;BME280;11544;42.020;23.094;2023-05-25T03:38:38;97161.06;;;15.30;93.75
22755;BME280;11544;42.020;23.094;2023-05-25T03:41:05;97171.91;;;15.08;95.93
22755;BME280;11544;42.020;23.094;2023-05-25T03:43:32;97170.63;;;15.63;93.85
22755;BME280;11544;42.020;23.094;2023-05-25T03:45:59;97172.94;;;15.21;95.91
22755;BME280;11544;42.020;23.094;2023-05-25T03:48:26;97182.00;;;15.48;96.41
22755;BME280;11544;42.020;23.094;2023-05-25T03:50:53;97177.59;;;15.64;95.06
22755;BME280;11544;42.020;23.094;2023-05-25T03:53:20;97188.03;;;15.81;93.89
22755;BME280;11544;42.020;23.094;2023-05-25T03:55:47;97184.56;;;15.33;96.41
22755;BME280;11544;42.020;23.094;2023-05-25T03:58:18;97179.44;;;15.94;93.73
22755;BME280;11544;42.020;23.094;2023-05-25T04:00:45;97180.53;;;15.90;94.21
22755;BME280;11544;42.020;23.094;2023-05-25T04:03:17;97181.22;;;15.77;93.85
22755;BME280;11544;42.020;23.094;2023-05-25T04:05:51;97180.88;;;15.99;91.87
22755;BME280;11544;42.020;23.094;2023-05-25T04:08:18;97187.38;;;16.08;91.32
22755;BME280;11544;42.020;23.094;2023-05-25T04:10:45;97189.22;;;16.06;91.55
22755;BME280;11544;42.020;23.094;2023-05-25T04:13:12;97193.19;;;16.13;91.42
22755;BME280;11544;42.020;23.094;2023-05-25T04:15:39;97185.56;;;16.08;91.95
22755;BME280;11544;42.020;23.094;2023-05-25T04:18:07;97185.28;;;16.43;91.23
22755;BME280;11544;42.020;23.094;2023-05-25T04:20:34;97178.72;;;16.50;89.82
22755;BME280;11544;42.020;23.094;2023-05-25T04:23:02;97182.69;;;16.58;89.62
22755;BME280;11544;42.020;23.094;2023-05-25T04:25:29;97179.66;;;16.94;85.45
22755;BME280;11544;42.020;23.094;2023-05-25T04:27:58;97181.56;;;16.62;85.13
22755;BME280;11544;42.020;23.094;2023-05-25T04:30:25;97180.13;;;18.11;78.72
22755;BME280;11544;42.020;23.094;2023-05-25T04:32:52;97179.91;;;18.14;76.67
22755;BME280;11544;42.020;23.094;2023-05-25T04:35:20;97176.50;;;18.52;73.77
22755;BME280;11544;42.020;23.094;2023-05-25T04:37:48;97176.09;;;18.58;72.57
22755;BME280;11544;42.020;23.094;2023-05-25T04:40:14;97188.41;;;19.47;85.99
22755;BME280;11544;42.020;23.094;2023-05-25T04:42:41;97186.47;;;19.86;83.13
22755;BME280;11544;42.020;23.094;2023-05-25T04:45:19;97178.84;;;20.76;73.05
22755;BME280;11544;42.020;23.094;2023-05-25T04:47:47;97177.28;;;20.62;68.17
22755;BME280;11544;42.020;23.094;2023-05-25T04:50:15;97185.25;;;18.39;74.85
22755;BME280;11544;42.020;23.094;2023-05-25T04:52:42;97191.13;;;18.30;78.74
22755;BME280;11544;42.020;23.094;2023-05-25T04:55:11;97188.28;;;18.86;77.82
22755;BME280;11544;42.020;23.094;2023-05-25T04:57:44;97194.97;;;18.39;81.34
22755;BME280;11544;42.020;23.094;2023-05-25T05:00:14;97204.66;;;17.57;84.67
22755;BME280;11544;42.020;23.094;2023-05-25T05:02:41;97206.44;;;17.01;90.33
22755;BME280;11544;42.020;23.094;2023-05-25T05:05:12;97197.25;;;17.08;92.13
22755;BME280;11544;42.020;23.094;2023-05-25T05:07:39;97211.38;;;17.63;89.08
22755;BME280;11544;42.020;23.094;2023-05-25T05:10:07;97209.44;;;18.06;85.21
22755;BME280;11544;42.020;23.094;2023-05-25T05:12:34;97210.09;;;18.10;83.56
22755;BME280;11544;42.020;23.094;2023-05-25T05:15:01;97211.81;;;17.55;86.02
22755;BME280;11544;42.020;23.094;2023-05-25T05:17:28;97206.53;;;18.89;78.32
22755;BME280;11544;42.020;23.094;2023-05-25T05:19:57;97211.19;;;18.86;78.88
22755;BME280;11544;42.020;23.094;2023-05-25T05:22:23;97209.88;;;18.66;80.30
22755;BME280;11544;42.020;23.094;2023-05-25T05:24:50;97206.25;;;19.43;74.78
22755;BME280;11544;42.020;23.094;2023-05-25T05:27:18;97206.84;;;19.60;72.69
22755;BME280;11544;42.020;23.094;2023-05-25T05:29:45;97204.41;;;19.20;73.38
22755;BME280;11544;42.020;23.094;2023-05-25T05:32:12;97206.59;;;19.39;75.14
22755;BME280;11544;42.020;23.094;2023-05-25T05:34:45;97206.84;;;19.10;74.85
22755;BME280;11544;42.020;23.094;2023-05-25T05:37:17;97192.72;;;20.80;68.49
22755;BME280;11544;42.020;23.094;2023-05-25T05:39:47;97197.13;;;19.23;72.70
22755;BME280;11544;42.020;23.094;2023-05-25T05:42:17;97193.06;;;20.75;70.18
22755;BME280;11544;42.020;23.094;2023-05-25T05:44:44;97187.50;;;20.67;68.57
22755;BME280;11544;42.020;23.094;2023-05-25T05:47:13;97181.25;;;20.68;69.44
22755;BME280;11544;42.020;23.094;2023-05-25T05:49:40;97185.13;;;20.86;68.38
22755;BME280;11544;42.020;23.094;2023-05-25T05:52:08;97188.53;;;20.53;65.56
22755;BME280;11544;42.020;23.094;2023-05-25T05:54:35;97175.59;;;21.63;63.70
22755;BME280;11544;42.020;23.094;2023-05-25T05:57:05;97178.88;;;21.55;66.06
22755;BME280;11544;42.020;23.094;2023-05-25T05:59:33;97174.72;;;22.06;62.06
22755;BME280;11544;42.020;23.094;2023-05-25T06:02:00;97186.56;;;21.02;64.37
22755;BME280;11544;42.020;23.094;2023-05-25T06:04:30;97184.19;;;21.44;63.35
22755;BME280;11544;42.020;23.094;2023-05-25T06:06:57;97184.16;;;20.87;66.88
22755;BME280;11544;42.020;23.094;2023-05-25T06:09:24;97175.56;;;21.74;64.20
22755;BME280;11544;42.020;23.094;2023-05-25T06:11:54;97170.38;;;22.79;60.87
22755;BME280;11544;42.020;23.094;2023-05-25T06:14:20;97183.16;;;23.46;57.27
22755;BME280;11544;42.020;23.094;2023-05-25T06:16:47;97177.53;;;22.57;58.45
22755;BME280;11544;42.020;23.094;2023-05-25T06:19:14;97182.16;;;21.47;61.50
22755;BME280;11544;42.020;23.094;2023-05-25T06:21:41;97186.06;;;20.63;66.60
22755;BME280;11544;42.020;23.094;2023-05-25T06:24:09;97195.13;;;20.47;69.03
22755;BME280;11544;42.020;23.094;2023-05-25T06:26:36;97193.56;;;20.45;70.17
22755;BME280;11544;42.020;23.094;2023-05-25T06:29:04;97187.78;;;20.75;70.11
22755;BME280;11544;42.020;23.094;2023-05-25T06:31:31;97179.25;;;21.05;66.59
22755;BME280;11544;42.020;23.094;2023-05-25T06:33:58;97178.00;;;21.66;64.14
22755;BME280;11544;42.020;23.094;2023-05-25T06:36:25;97174.44;;;22.52;61.00
22755;BME280;11544;42.020;23.094;2023-05-25T06:38:52;97171.00;;;22.61;61.60
22755;BME280;11544;42.020;23.094;2023-05-25T06:41:19;97171.44;;;21.92;62.25
22755;BME280;11544;42.020;23.094;2023-05-25T06:43:46;97168.31;;;23.03;59.76
22755;BME280;11544;42.020;23.094;2023-05-25T06:46:13;97170.69;;;23.37;59.24
22755;BME280;11544;42.020;23.094;2023-05-25T06:48:44;97159.00;;;22.98;57.85
22755;BME280;11544;42.020;23.094;2023-05-25T06:51:12;97156.06;;;23.22;57.39
22755;BME280;11544;42.020;23.094;2023-05-25T06:53:39;97151.34;;;23.85;55.11
22755;BME280;11544;42.020;23.094;2023-05-25T06:56:06;97154.81;;;23.26;58.16
22755;BME280;11544;42.020;23.094;2023-05-25T06:58:33;97153.59;;;23.40;58.00
22755;BME280;11544;42.020;23.094;2023-05-25T07:01:02;97147.50;;;23.68;57.13
22755;BME280;11544;42.020;23.094;2023-05-25T07:03:33;97146.59;;;23.89;55.55
22755;BME280;11544;42.020;23.094;2023-05-25T07:06:05;97150.22;;;23.78;54.50
22755;BME280;11544;42.020;23.094;2023-05-25T07:08:32;97149.97;;;23.91;54.71
22755;BME280;11544;42.020;23.094;2023-05-25T07:10:59;97143.75;;;24.39;52.25
22755;BME280;11544;42.020;23.094;2023-05-25T07:13:26;97142.94;;;24.00;53.84
22755;BME280;11544;42.020;23.094;2023-05-25T07:15:53;97141.13;;;23.91;53.67
22755;BME280;11544;42.020;23.094;2023-05-25T07:18:20;97130.53;;;24.77;52.74
22755;BME280;11544;42.020;23.094;2023-05-25T07:20:47;97127.03;;;24.76;54.51
22755;BME280;11544;42.020;23.094;2023-05-25T07:23:14;97127.06;;;24.57;52.39
22755;BME280;11544;42.020;23.094;2023-05-25T07:25:41;97116.94;;;25.45;51.17
22755;BME280;11544;42.020;23.094;2023-05-25T07:28:08;97118.69;;;24.32;53.13
22755;BME280;11544;42.020;23.094;2023-05-25T07:30:35;97120.03;;;24.65;53.88
22755;BME280;11544;42.020;23.094;2023-05-25T07:33:05;97123.19;;;23.83;54.77
22755;BME280;11544;42.020;23.094;2023-05-25T07:35:32;97127.41;;;24.05;55.51
22755;BME280;11544;42.020;23.094;2023-05-25T07:38:02;97125.50;;;23.07;57.00
22755;BME280;11544;42.020;23.094;2023-05-25T07:40:32;97112.28;;;23.86;55.09
22755;BME280;11544;42.020;23.094;2023-05-25T07:42:59;97111.44;;;24.81;53.16
22755;BME280;11544;42.020;23.094;2023-05-25T07:45:26;97104.63;;;25.06;52.59
22755;BME280;11544;42.020;23.094;2023-05-25T07:47:53;97112.50;;;24.51;53.55
22755;BME280;11544;42.020;23.094;2023-05-25T07:50:20;97105.66;;;24.29;54.08
22755;BME280;11544;42.020;23.094;2023-05-25T07:52:47;97098.84;;;25.01;52.24
22755;BME280;11544;42.020;23.094;2023-05-25T07:55:14;97096.84;;;24.76;51.40
22755;BME280;11544;42.020;23.094;2023-05-25T07:57:41;97091.25;;;24.79;54.06
22755;BME280;11544;42.020;23.094;2023-05-25T08:00:08;97083.09;;;25.18;52.60
22755;BME280;11544;42.020;23.094;2023-05-25T08:02:36;97082.03;;;26.10;50.94
22755;BME280;11544;42.020;23.094;2023-05-25T08:05:12;97084.09;;;25.98;50.21
22755;BME280;11544;42.020;23.094;2023-05-25T08:07:40;97083.13;;;25.35;51.08
22755;BME280;11544;42.020;23.094;2023-05-25T08:10:08;97081.94;;;25.48;50.68
22755;BME280;11544;42.020;23.094;2023-05-25T08:12:36;97066.47;;;26.05;51.12
22755;BME280;11544;42.020;23.094;2023-05-25T08:15:16;97067.38;;;25.60;52.98
22755;BME280;11544;42.020;23.094;2023-05-25T08:17:44;97073.50;;;25.70;51.44
22755;BME280;11544;42.020;23.094;2023-05-25T08:20:12;97070.88;;;25.43;51.81
22755;BME280;11544;42.020;23.094;2023-05-25T08:22:39;97068.56;;;25.30;52.30
22755;BME280;11544;42.020;23.094;2023-05-25T08:25:07;97063.88;;;25.95;52.34
22755;BME280;11544;42.020;23.094;2023-05-25T08:27:34;97058.25;;;25.98;51.65
22755;BME280;11544;42.020;23.094;2023-05-25T08:30:03;97069.66;;;25.55;52.20
22755;BME280;11544;42.020;23.094;2023-05-25T08:32:31;97064.63;;;26.76;50.45
22755;BME280;11544;42.020;23.094;2023-05-25T08:34:58;97056.41;;;26.69;50.43
22755;BME280;11544;42.020;23.094;2023-05-25T08:37:25;97056.72;;;27.00;49.93
22755;BME280;11544;42.020;23.094;2023-05-25T08:39:52;97063.22;;;27.32;48.71
22755;BME280;11544;42.020;23.094;2023-05-25T08:42:19;97055.91;;;26.48;50.08
22755;BME280;11544;42.020;23.094;2023-05-25T08:44:46;97057.81;;;26.29;50.73
22755;BME280;11544;42.020;23.094;2023-05-25T08:47:16;97060.38;;;27.34;47.10
22755;BME280;11544;42.020;23.094;2023-05-25T08:49:43;97044.19;;;27.01;44.49
22755;BME280;11544;42.020;23.094;2023-05-25T08:52:13;97047.03;;;27.50;45.39
22755;BME280;11544;42.020;23.094;2023-05-25T08:54:44;97045.63;;;27.21;49.80
22755;BME280;11544;42.020;23.094;2023-05-25T08:57:20;97044.47;;;27.32;46.82
22755;BME280;11544;42.020;23.094;2023-05-25T09:00:03;97033.16;;;27.63;46.73
22755;BME280;11544;42.020;23.094;2023-05-25T09:03:02;97036.00;;;27.02;45.43
22755;BME280;11544;42.020;23.094;2023-05-25T09:05:35;97028.47;;;26.11;45.12
22755;BME280;11544;42.020;23.094;2023-05-25T09:08:07;97031.84;;;26.48;43.85
22755;BME280;11544;42.020;23.094;2023-05-25T09:10:36;97028.81;;;25.54;47.03
22755;BME280;11544;42.020;23.094;2023-05-25T09:13:10;97027.06;;;26.51;46.02
22755;BME280;11544;42.020;23.094;2023-05-25T09:15:48;97021.81;;;27.10;46.20
22755;BME280;11544;42.020;23.094;2023-05-25T09:18:16;97018.09;;;27.54;45.75
22755;BME280;11544;42.020;23.094;2023-05-25T09:20:43;97023.97;;;26.64;46.71
22755;BME280;11544;42.020;23.094;2023-05-25T09:23:13;97017.22;;;26.86;47.28
22755;BME280;11544;42.020;23.094;2023-05-25T09:25:41;97006.19;;;26.89;47.48
22755;BME280;11544;42.020;23.094;2023-05-25T09:28:09;97011.56;;;27.48;45.80
22755;BME280;11544;42.020;23.094;2023-05-25T09:30:39;97005.97;;;27.17;45.77
22755;BME280;11544;42.020;23.094;2023-05-25T09:33:14;97005.72;;;27.77;45.75
22755;BME280;11544;42.020;23.094;2023-05-25T09:35:45;97003.06;;;28.02;45.42
22755;BME280;11544;42.020;23.094;2023-05-25T09:38:13;96998.19;;;27.48;45.67
22755;BME280;11544;42.020;23.094;2023-05-25T09:40:42;96994.16;;;27.77;45.91
22755;BME280;11544;42.020;23.094;2023-05-25T09:43:11;96990.16;;;28.05;45.02
22755;BME280;11544;42.020;23.094;2023-05-25T09:45:47;96986.66;;;28.05;43.71
22755;BME280;11544;42.020;23.094;2023-05-25T09:48:16;96986.66;;;28.05;44.56
22755;BME280;11544;42.020;23.094;2023-05-25T09:50:43;96986.53;;;28.62;43.20
22755;BME280;11544;42.020;23.094;2023-05-25T09:53:14;96983.47;;;27.52;44.60
22755;BME280;11544;42.020;23.094;2023-05-25T09:55:41;96978.94;;;27.77;44.31
22755;BME280;11544;42.020;23.094;2023-05-25T09:58:21;96984.81;;;28.14;43.69
22755;BME280;11544;42.020;23.094;2023-05-25T10:00:52;96988.47;;;27.63;44.00
22755;BME280;11544;42.020;23.094;2023-05-25T10:03:20;96979.38;;;28.46;43.10
22755;BME280;11544;42.020;23.094;2023-05-25T10:05:47;96984.88;;;28.61;43.00
22755;BME280;11544;42.020;23.094;2023-05-25T10:08:17;96980.25;;;28.22;41.26
22755;BME280;11544;42.020;23.094;2023-05-25T10:10:46;96990.22;;;27.14;42.10
22755;BME280;11544;42.020;23.094;2023-05-25T10:13:19;96992.97;;;27.38;43.54
22755;BME280;11544;42.020;23.094;2023-05-25T10:15:52;96985.34;;;27.01;44.66
22755;BME280;11544;42.020;23.094;2023-05-25T10:18:25;96999.66;;;26.84;46.00
22755;BME280;11544;42.020;23.094;2023-05-25T10:20:58;96998.34;;;26.01;47.53
22755;BME280;11544;42.020;23.094;2023-05-25T10:23:34;96990.28;;;25.75;47.33
22755;BME280;11544;42.020;23.094;2023-05-25T10:26:04;96999.22;;;25.66;48.00
22755;BME280;11544;42.020;23.094;2023-05-25T10:28:35;97008.06;;;25.48;48.24
22755;BME280;11544;42.020;23.094;2023-05-25T10:31:17;97004.41;;;25.49;47.99
22755;BME280;11544;42.020;23.094;2023-05-25T10:33:45;97002.50;;;25.60;48.52
22755;BME280;11544;42.020;23.094;2023-05-25T10:36:19;97004.69;;;25.82;47.78
22755;BME280;11544;42.020;23.094;2023-05-25T10:38:50;97000.88;;;25.85;47.37
22755;BME280;11544;42.020;23.094;2023-05-25T10:41:18;97000.16;;;26.01;46.32
22755;BME280;11544;42.020;23.094;2023-05-25T10:43:47;97004.75;;;26.60;46.03
22755;BME280;11544;42.020;23.094;2023-05-25T10:46:15;96999.69;;;26.57;46.56
22755;BME280;11544;42.020;23.094;2023-05-25T10:48:47;97002.00;;;26.52;44.50
22755;BME280;11544;42.020;23.094;2023-05-25T10:51:18;97006.66;;;27.35;44.46
22755;BME280;11544;42.020;23.094;2023-05-25T10:53:58;97009.59;;;27.08;41.78
22755;BME280;11544;42.020;23.094;2023-05-25T10:56:29;97006.47;;;26.78;39.99
22755;BME280;11544;42.020;23.094;2023-05-25T11:01:24;97010.16;;;26.77;39.71
22755;BME280;11544;42.020;23.094;2023-05-25T11:04:14;97005.34;;;25.84;40.58
22755;BME280;11544;42.020;23.094;2023-05-25T11:07:13;97009.09;;;25.91;41.21
22755;BME280;11544;42.020;23.094;2023-05-25T11:10:03;97017.59;;;25.51;40.25
22755;BME280;11544;42.020;23.094;2023-05-25T11:16:22;97024.81;;;25.76;39.61
22755;BME280;11544;42.020;23.094;2023-05-25T11:19:02;97059.53;;;24.85;42.88
22755;BME280;11544;42.020;23.094;2023-05-25T11:21:42;97080.16;;;24.17;46.76
22755;BME280;11544;42.020;23.094;2023-05-25T11:24:16;97087.78;;;23.22;52.60
22755;BME280;11544;42.020;23.094;2023-05-25T11:26:55;97079.25;;;22.57;60.08
22755;BME280;11544;42.020;23.094;2023-05-25T11:29:22;97073.91;;;22.27;63.91
22755;BME280;11544;42.020;23.094;2023-05-25T11:31:58;97104.34;;;22.44;63.14
22755;BME280;11544;42.020;23.094;2023-05-25T11:34:32;97111.94;;;21.95;66.73
22755;BME280;11544;42.020;23.094;2023-05-25T11:37:03;97109.78;;;21.89;75.14
22755;BME280;11544;42.020;23.094;2023-05-25T11:39:30;97106.19;;;21.58;75.44
22755;BME280;11544;42.020;23.094;2023-05-25T11:42:03;97104.78;;;21.31;78.23
22755;BME280;11544;42.020;23.094;2023-05-25T11:45:00;97110.44;;;21.81;76.99
22755;BME280;11544;42.020;23.094;2023-05-25T11:47:29;97109.78;;;21.89;75.04
22755;BME280;11544;42.020;23.094;2023-05-25T11:50:00;97110.69;;;21.78;74.67
22755;BME280;11544;42.020;23.094;2023-05-25T11:52:34;97102.84;;;21.76;73.07
22755;BME280;11544;42.020;23.094;2023-05-25T11:55:16;97106.41;;;22.19;71.33
22755;BME280;11544;42.020;23.094;2023-05-25T11:57:54;97107.31;;;22.29;70.50
22755;BME280;11544;42.020;23.094;2023-05-25T12:00:31;97107.84;;;21.91;70.01
22755;BME280;11544;42.020;23.094;2023-05-25T12:02:58;97101.09;;;22.19;71.79
22755;BME280;11544;42.020;23.094;2023-05-25T12:05:38;97096.38;;;22.44;69.63
22755;BME280;11544;42.020;23.094;2023-05-25T12:08:05;97096.81;;;22.49;64.78
22755;BME280;11544;42.020;23.094;2023-05-25T12:10:48;97095.47;;;22.54;63.73
22755;BME280;11544;42.020;23.094;2023-05-25T12:13:15;97095.59;;;22.53;64.23
22755;BME280;11544;42.020;23.094;2023-05-25T12:15:43;97099.34;;;22.50;62.99
22755;BME280;11544;42.020;23.094;2023-05-25T12:18:23;97086.69;;;22.33;64.55
22755;BME280;11544;42.020;23.094;2023-05-25T12:20:50;97087.56;;;22.22;64.87
22755;BME280;11544;42.020;23.094;2023-05-25T12:23:21;97081.66;;;22.18;65.07
22755;BME280;11544;42.020;23.094;2023-05-25T12:25:48;97077.13;;;22.09;65.00
22755;BME280;11544;42.020;23.094;2023-05-25T12:28:18;97074.22;;;22.12;63.94
22755;BME280;11544;42.020;23.094;2023-05-25T12:30:45;97070.75;;;22.33;63.56
22755;BME280;11544;42.020;23.094;2023-05-25T12:33:16;97068.19;;;22.10;63.91
22755;BME280;11544;42.020;23.094;2023-05-25T12:35:47;97068.97;;;22.43;64.56
22755;BME280;11544;42.020;23.094;2023-05-25T12:38:19;97067.00;;;22.66;62.29
22755;BME280;11544;42.020;23.094;2023-05-25T12:41:05;97068.84;;;22.75;59.56
22755;BME280;11544;42.020;23.094;2023-05-25T12:43:40;97064.28;;;22.87;59.28
22755;BME280;11544;42.020;23.094;2023-05-25T12:46:25;97061.44;;;23.19;57.71
22755;BME280;11544;42.020;23.094;2023-05-25T12:48:53;97058.69;;;23.40;57.73
22755;BME280;11544;42.020;23.094;2023-05-25T12:51:20;97055.50;;;23.66;56.75
22755;BME280;11544;42.020;23.094;2023-05-25T12:54:04;97048.38;;;23.76;55.70
22755;BME280;11544;42.020;23.094;2023-05-25T12:56:32;97052.00;;;23.36;56.60
22755;BME280;11544;42.020;23.094;2023-05-25T12:59:13;97057.06;;;23.98;54.64
22755;BME280;11544;42.020;23.094;2023-05-25T13:01:45;97048.75;;;24.20;54.92
22755;BME280;11544;42.020;23.094;2023-05-25T13:04:12;97035.09;;;24.53;54.17
22755;BME280;11544;42.020;23.094;2023-05-25T13:06:39;97033.50;;;24.69;52.66
22755;BME280;11544;42.020;23.094;2023-05-25T13:09:09;97031.19;;;24.37;52.70
22755;BME280;11544;42.020;23.094;2023-05-25T13:11:38;97036.78;;;24.54;52.39
22755;BME280;11544;42.020;23.094;2023-05-25T13:14:05;97031.94;;;25.04;51.20
22755;BME280;11544;42.020;23.094;2023-05-25T13:16:32;97027.75;;;24.92;52.59